createdAt,value
2018-05-23T00:01:28.905Z,39
2018-05-23T00:11:27.725Z,38
2018-05-23T00:21:27.661Z,39
2018-05-23T00:31:30.698Z,37
2018-05-23T00:41:28.053Z,38
2018-05-23T00:51:28.168Z,40
2018-05-23T01:01:27.163Z,40
2018-05-23T01:11:27.914Z,39
2018-05-23T01:21:30.477Z,39
2018-05-23T01:31:29.381Z,39
2018-05-23T01:41:30.447Z,39
2018-05-23T01:51:28.280Z,38
2018-05-23T02:01:28.112Z,40
2018-05-23T02:11:28.332Z,41
2018-05-23T02:21:28.750Z,40
2018-05-23T02:31:27.635Z,39
2018-05-23T02:41:28.408Z,40
2018-05-23T02:51:28.308Z,39
2018-05-23T03:01:29.002Z,39
2018-05-23T03:11:28.111Z,41
2018-05-23T03:21:28.248Z,39
2018-05-23T03:31:27.108Z,40
2018-05-23T03:41:28.149Z,40
2018-05-23T03:51:27.344Z,40
2018-05-23T04:01:28.372Z,40
2018-05-23T04:11:28.312Z,39
2018-05-23T04:21:28.318Z,40
2018-05-23T04:31:28.372Z,40
2018-05-23T04:41:28.473Z,40
2018-05-23T04:51:27.324Z,39
2018-05-23T05:04:09.943Z,40
2018-05-23T05:11:27.817Z,40
2018-05-23T05:21:28.240Z,40
2018-05-23T05:31:28.059Z,40
2018-05-23T05:41:28.290Z,41
2018-05-23T05:51:28.686Z,40
2018-05-23T06:01:30.885Z,38
2018-05-23T06:11:29.044Z,38
2018-05-23T06:21:28.034Z,38
2018-05-23T06:31:30.344Z,38
2018-05-23T06:41:27.801Z,39
2018-05-23T06:51:27.982Z,38
2018-05-23T07:01:28.059Z,40
2018-05-23T07:11:28.537Z,38
2018-05-23T07:21:29.333Z,39
2018-05-23T07:31:28.230Z,39
2018-05-23T07:41:27.007Z,40
2018-05-23T07:51:28.120Z,40
2018-05-23T08:01:26.921Z,39
2018-05-23T08:11:27.443Z,39
2018-05-23T08:21:28.471Z,39
2018-05-23T08:31:27.287Z,39
2018-05-23T08:41:27.354Z,39
2018-05-23T08:51:28.444Z,39
2018-05-23T09:01:27.720Z,39
2018-05-23T09:11:27.882Z,39
2018-05-23T09:21:27.760Z,38
2018-05-23T09:31:29.194Z,38
2018-05-23T09:41:29.686Z,38
2018-05-23T09:51:27.486Z,38
2018-05-23T10:01:27.785Z,39
2018-05-23T10:11:28.100Z,40
2018-05-23T10:21:28.176Z,39
2018-05-23T10:31:28.105Z,40
2018-05-23T10:41:26.946Z,40
2018-05-23T10:51:27.598Z,37
2018-05-23T11:01:28.779Z,36
2018-05-23T11:11:27.685Z,36
2018-05-23T11:21:26.748Z,38
2018-05-23T11:31:28.518Z,37
2018-05-23T11:41:28.081Z,37
2018-05-23T11:51:27.115Z,37
2018-05-23T12:01:27.415Z,38
2018-05-23T12:11:27.396Z,37
2018-05-23T12:21:27.728Z,38
2018-05-23T12:31:28.159Z,37
2018-05-23T12:41:27.533Z,38
2018-05-23T12:51:27.392Z,37
2018-05-23T13:01:27.401Z,38
2018-05-23T13:11:29.315Z,35
2018-05-23T13:21:28.201Z,36
2018-05-23T13:31:27.085Z,36
2018-05-23T13:41:29.405Z,36
2018-05-23T13:51:27.740Z,36
2018-05-23T14:01:28.611Z,35
2018-05-23T14:11:33.347Z,35
2018-05-23T14:21:27.731Z,36
2018-05-23T14:31:31.678Z,35
2018-05-23T14:41:27.527Z,35
2018-05-23T14:51:27.843Z,36
2018-05-23T15:01:27.904Z,36
2018-05-23T15:11:27.730Z,35
2018-05-23T15:21:27.145Z,36
2018-05-23T15:31:28.263Z,35
2018-05-23T15:41:27.847Z,35
2018-05-23T15:51:27.798Z,35
2018-05-23T16:01:28.348Z,35
2018-05-23T16:11:27.851Z,34
2018-05-23T16:21:27.377Z,36
2018-05-23T16:31:27.937Z,35
2018-05-23T16:41:27.860Z,34
2018-05-23T16:51:30.366Z,33
2018-05-23T17:01:28.218Z,35
2018-05-23T17:11:27.423Z,36
2018-05-23T17:21:27.519Z,35
2018-05-23T17:31:27.591Z,36
2018-05-23T17:41:27.874Z,36
2018-05-23T17:51:29.941Z,36
2018-05-23T18:01:30.021Z,35
2018-05-23T18:11:28.446Z,35
2018-05-23T18:21:27.600Z,36
2018-05-23T18:31:28.296Z,36
2018-05-23T18:41:27.835Z,37
2018-05-23T18:51:26.786Z,36
2018-05-23T19:01:27.897Z,37
2018-05-23T19:11:27.517Z,37
2018-05-23T19:21:27.716Z,36
2018-05-23T19:31:27.870Z,38
2018-05-23T19:41:27.726Z,37
2018-05-23T19:51:28.106Z,37
2018-05-23T20:01:27.891Z,38
2018-05-23T20:11:26.986Z,38
2018-05-23T20:21:27.179Z,38
2018-05-23T20:31:28.547Z,37
2018-05-23T20:41:30.723Z,36
2018-05-23T20:51:27.692Z,38
2018-05-23T21:01:27.744Z,38
2018-05-23T21:11:29.740Z,39
2018-05-23T21:21:29.175Z,38
2018-05-23T21:31:27.941Z,37
2018-05-23T21:41:26.900Z,38
2018-05-23T21:51:28.083Z,39
2018-05-23T22:01:29.863Z,38
2018-05-23T22:11:30.604Z,37
2018-05-23T22:21:28.880Z,39
2018-05-23T22:31:27.884Z,40
2018-05-23T22:41:26.582Z,38
2018-05-23T22:51:30.030Z,38
2018-05-23T23:01:26.812Z,38
2018-05-23T23:11:29.121Z,40
2018-05-23T23:21:30.343Z,38
2018-05-23T23:31:28.874Z,38
2018-05-23T23:41:28.242Z,38
2018-05-23T23:51:27.413Z,40
